createdAt,value
2018-07-30T00:02:30.128Z,101025.19
2018-07-30T00:04:58.726Z,101028.41
2018-07-30T00:07:27.381Z,101018.68
2018-07-30T00:09:56.561Z,101026.26
2018-07-30T00:12:25.161Z,101026.42
2018-07-30T00:14:53.659Z,101038.39
2018-07-30T00:17:22.277Z,101031.31
2018-07-30T00:19:50.910Z,101033.97
2018-07-30T00:22:19.494Z,101038.11
2018-07-30T00:24:48.017Z,101043.23
2018-07-30T00:27:16.614Z,101038.66
2018-07-30T00:29:45.446Z,101037.48
2018-07-30T00:32:14.132Z,101040.70
2018-07-30T00:34:42.768Z,101035.73
2018-07-30T00:37:11.502Z,101041.43
2018-07-30T00:39:40.085Z,101039.63
2018-07-30T00:42:08.723Z,101037.83
2018-07-30T00:44:37.865Z,101040.86
2018-07-30T00:47:06.359Z,101035.89
2018-07-30T00:49:35.034Z,101033.23
2018-07-30T00:52:03.716Z,101038.95
2018-07-30T00:54:32.344Z,101035.06
2018-07-30T00:57:01.087Z,101032.11
2018-07-30T00:59:29.776Z,101028.16
2018-07-30T01:01:58.268Z,101037.48
2018-07-30T01:04:26.870Z,101030.88
2018-07-30T01:06:55.625Z,101034.33
2018-07-30T01:09:24.312Z,101036.25
2018-07-30T01:11:55.786Z,101025.28
2018-07-30T01:14:24.585Z,101035.38
2018-07-30T01:16:53.233Z,101027.03
2018-07-30T01:19:21.740Z,101036.75
2018-07-30T01:21:50.331Z,101039.45
2018-07-30T01:24:18.895Z,101041.59
2018-07-30T01:26:47.478Z,101043.95
2018-07-30T01:29:16.148Z,101052.23
2018-07-30T01:31:44.649Z,101053.97
2018-07-30T01:34:13.260Z,101042.59
2018-07-30T01:36:41.902Z,101048.01
2018-07-30T01:39:10.586Z,101053.53
2018-07-30T01:41:39.197Z,101048.88
2018-07-30T01:44:07.766Z,101047.73
2018-07-30T01:46:36.353Z,101046.05
2018-07-30T01:49:05.178Z,101043.72
2018-07-30T01:51:33.770Z,101041.98
2018-07-30T01:54:02.396Z,101040.69
2018-07-30T01:56:31.070Z,101038.55
2018-07-30T01:58:59.655Z,101047.82
2018-07-30T02:01:28.443Z,101037.63
2018-07-30T02:03:57.128Z,101043.30
2018-07-30T02:06:25.809Z,101043.28
2018-07-30T02:08:54.604Z,101048.56
2018-07-30T02:11:23.275Z,101047.17
2018-07-30T02:13:52.276Z,101049.92
2018-07-30T02:16:20.908Z,101050.73
2018-07-30T02:18:49.551Z,101043.86
2018-07-30T02:21:18.238Z,101044.98
2018-07-30T02:23:46.747Z,101052.37
2018-07-30T02:26:15.499Z,101048.16
2018-07-30T02:28:44.289Z,101051.16
2018-07-30T02:31:12.973Z,101050.45
2018-07-30T02:33:41.556Z,101048.69
2018-07-30T02:36:10.226Z,101044.55
2018-07-30T02:38:38.771Z,101047.28
2018-07-30T02:41:07.409Z,101042.27
2018-07-30T02:43:35.927Z,101044.50
2018-07-30T02:46:04.576Z,101033.62
2018-07-30T02:48:33.256Z,101039.84
2018-07-30T02:51:01.872Z,101045.90
2018-07-30T02:53:30.366Z,101049.69
2018-07-30T02:55:59.006Z,101050.25
2018-07-30T02:58:27.589Z,101066.79
2018-07-30T03:00:56.315Z,101065.38
2018-07-30T03:03:24.960Z,101057.91
2018-07-30T03:05:53.597Z,101055.84
2018-07-30T03:08:22.148Z,101060.84
2018-07-30T03:10:50.874Z,101056.26
2018-07-30T03:13:19.496Z,101049.95
2018-07-30T03:15:48.180Z,101053.84
2018-07-30T03:18:16.826Z,101051.45
2018-07-30T03:20:45.393Z,101048.16
2018-07-30T03:23:14.033Z,101046.38
2018-07-30T03:25:42.570Z,101044.23
2018-07-30T03:28:11.118Z,101047.39
2018-07-30T03:30:39.678Z,101051.55
2018-07-30T03:33:08.346Z,101042.23
2018-07-30T03:35:36.886Z,101050.64
2018-07-30T03:38:05.426Z,101045.67
2018-07-30T03:40:34.216Z,101044.73
2018-07-30T03:43:03.003Z,101047.19
2018-07-30T03:45:31.689Z,101043.94
2018-07-30T03:48:00.229Z,101044.25
2018-07-30T03:50:28.818Z,101043.91
2018-07-30T03:52:57.352Z,101041.86
2018-07-30T03:55:26.012Z,101032.14
2018-07-30T03:57:55.272Z,101035.08
2018-07-30T04:00:23.936Z,101037.39
2018-07-30T04:02:52.590Z,101040.69
2018-07-30T04:05:21.218Z,101034.25
2018-07-30T04:07:49.805Z,101035.81
2018-07-30T04:10:18.390Z,101029.38
2018-07-30T04:12:46.966Z,101025.61
2018-07-30T04:15:15.547Z,101026.20
2018-07-30T04:17:44.175Z,101022.44
2018-07-30T04:20:12.696Z,101031.41
2018-07-30T04:22:41.353Z,101029.67
2018-07-30T04:25:09.880Z,101044.63
2018-07-30T04:27:38.463Z,101048.15
2018-07-30T04:30:07.103Z,101055.20
2018-07-30T04:32:35.684Z,101049.72
2018-07-30T04:35:04.575Z,101058.84
2018-07-30T04:37:33.157Z,101062.98
2018-07-30T04:40:02.355Z,101051.51
2018-07-30T04:42:30.936Z,101057.59
2018-07-30T04:44:59.574Z,101052.34
2018-07-30T04:47:28.206Z,101050.05
2018-07-30T04:49:56.734Z,101050.84
2018-07-30T04:52:25.282Z,101057.28
2018-07-30T04:54:53.902Z,101060.57
2018-07-30T04:57:22.540Z,101066.53
2018-07-30T04:59:51.120Z,101066.19
2018-07-30T05:02:19.719Z,101066.06
2018-07-30T05:04:48.331Z,101070.42
2018-07-30T05:07:16.919Z,101070.42
2018-07-30T05:09:45.555Z,101067.72
2018-07-30T05:12:14.359Z,101065.55
2018-07-30T05:14:42.972Z,101069.66
2018-07-30T05:17:11.611Z,101073.16
2018-07-30T05:19:40.384Z,101074.34
2018-07-30T05:22:08.847Z,101073.20
2018-07-30T05:24:37.420Z,101076.80
2018-07-30T05:27:05.907Z,101074.06
2018-07-30T05:29:34.782Z,101082.88
2018-07-30T05:32:03.518Z,101077.28
2018-07-30T05:34:32.059Z,101071.88
2018-07-30T05:37:00.686Z,101078.94
2018-07-30T05:39:29.269Z,101074.07
2018-07-30T05:41:57.952Z,101081.25
2018-07-30T05:44:26.492Z,101078.89
2018-07-30T05:46:55.118Z,101074.86
2018-07-30T05:49:23.699Z,101077.63
2018-07-30T05:51:52.386Z,101085.84
2018-07-30T05:54:21.070Z,101084.05
2018-07-30T05:56:49.614Z,101085.34
2018-07-30T05:59:18.218Z,101088.80
2018-07-30T06:01:47.127Z,101090.39
2018-07-30T06:04:15.686Z,101088.98
2018-07-30T06:06:44.171Z,101084.81
2018-07-30T06:09:12.727Z,101085.23
2018-07-30T06:11:41.501Z,101078.06
2018-07-30T06:14:09.978Z,101086.09
2018-07-30T06:16:38.624Z,101080.95
2018-07-30T06:19:07.206Z,101078.53
2018-07-30T06:21:35.806Z,101077.83
2018-07-30T06:24:04.432Z,101080.48
2018-07-30T06:26:33.178Z,101085.16
2018-07-30T06:29:01.743Z,101088.27
2018-07-30T06:31:30.255Z,101087.66
2018-07-30T06:33:58.918Z,101088.86
2018-07-30T06:36:27.594Z,101090.70
2018-07-30T06:38:56.129Z,101093.09
2018-07-30T06:41:24.767Z,101095.79
2018-07-30T06:43:53.290Z,101094.14
2018-07-30T06:46:21.808Z,101090.66
2018-07-30T06:48:50.407Z,101096.73
2018-07-30T06:51:19.092Z,101095.05
2018-07-30T06:53:47.618Z,101099.34
2018-07-30T06:56:16.205Z,101097.14
2018-07-30T06:58:44.778Z,101095.22
2018-07-30T07:01:13.525Z,101099.70
2018-07-30T07:03:42.287Z,101102.09
2018-07-30T07:06:10.828Z,101100.41
2018-07-30T07:08:39.478Z,101111.63
2018-07-30T07:11:08.164Z,101112.40
2018-07-30T07:13:36.782Z,101113.75
2018-07-30T07:16:05.537Z,101107.77
2018-07-30T07:18:34.144Z,101116.51
2018-07-30T07:21:02.723Z,101119.58
2018-07-30T07:23:31.828Z,101126.34
2018-07-30T07:26:00.379Z,101125.34
2018-07-30T07:28:28.882Z,101137.23
2018-07-30T07:30:57.544Z,101129.75
2018-07-30T07:33:26.167Z,101131.83
2018-07-30T07:35:55.427Z,101137.81
2018-07-30T07:38:24.009Z,101141.24
2018-07-30T07:40:52.548Z,101148.91
2018-07-30T07:43:21.176Z,101147.55
2018-07-30T07:45:49.800Z,101152.30
2018-07-30T07:48:18.587Z,101153.66
2018-07-30T07:50:47.245Z,101150.34
2018-07-30T07:53:15.765Z,101160.02
2018-07-30T07:55:45.067Z,101157.58
2018-07-30T07:58:13.751Z,101165.06
2018-07-30T08:00:42.388Z,101166.12
2018-07-30T08:03:11.015Z,101159.03
2018-07-30T08:05:39.599Z,101164.82
2018-07-30T08:08:08.483Z,101165.38
2018-07-30T08:10:37.064Z,101168.58
2018-07-30T08:13:05.705Z,101176.05
2018-07-30T08:15:34.402Z,101174.56
2018-07-30T08:18:03.127Z,101180.19
2018-07-30T08:20:31.705Z,101168.61
2018-07-30T08:23:00.348Z,101172.41
2018-07-30T08:25:28.948Z,101175.50
2018-07-30T08:27:57.561Z,101176.70
2018-07-30T08:30:26.299Z,101181.94
2018-07-30T08:32:54.960Z,101185.69
2018-07-30T08:35:23.528Z,101184.73
2018-07-30T08:37:52.148Z,101184.83
2018-07-30T08:40:20.755Z,101190.89
2018-07-30T08:42:49.366Z,101193.61
2018-07-30T08:45:17.999Z,101188.58
2018-07-30T08:47:46.613Z,101192.95
2018-07-30T08:50:15.164Z,101191.02
2018-07-30T08:52:43.851Z,101187.34
2018-07-30T08:55:12.638Z,101186.04
2018-07-30T08:57:41.323Z,101192.19
2018-07-30T09:00:10.477Z,101191.03
2018-07-30T09:02:39.631Z,101195.26
2018-07-30T09:05:09.528Z,101199.31
2018-07-30T09:07:38.419Z,101199.52
2018-07-30T09:10:07.766Z,101193.57
2018-07-30T09:12:36.901Z,101196.28
2018-07-30T09:15:06.167Z,101199.22
2018-07-30T09:17:34.780Z,101194.98
2018-07-30T09:20:03.692Z,101193.64
2018-07-30T09:22:32.711Z,101205.52
2018-07-30T09:25:01.316Z,101190.98
2018-07-30T09:27:29.955Z,101195.05
2018-07-30T09:29:59.251Z,101197.39
2018-07-30T09:32:27.903Z,101202.83
2018-07-30T09:34:56.517Z,101205.50
2018-07-30T09:37:25.100Z,101198.04
2018-07-30T09:39:53.723Z,101199.76
2018-07-30T09:42:22.369Z,101203.75
2018-07-30T09:44:50.987Z,101203.39
2018-07-30T09:47:19.946Z,101204.20
2018-07-30T09:49:48.837Z,101197.88
2018-07-30T09:52:17.522Z,101198.34
2018-07-30T09:54:46.205Z,101197.43
2018-07-30T09:57:14.789Z,101202.14
2018-07-30T09:59:43.334Z,101202.33
2018-07-30T10:02:12.012Z,101202.72
2018-07-30T10:04:43.919Z,101202.50
2018-07-30T10:07:13.687Z,101193.61
2018-07-30T10:09:42.247Z,101198.28
2018-07-30T10:12:10.820Z,101203.27
2018-07-30T10:14:39.784Z,101198.00
2018-07-30T10:17:08.403Z,101194.86
2018-07-30T10:19:37.667Z,101190.95
2018-07-30T10:22:06.458Z,101193.96
2018-07-30T10:24:35.083Z,101193.64
2018-07-30T10:27:03.774Z,101189.54
2018-07-30T10:29:32.360Z,101183.61
2018-07-30T10:32:00.931Z,101181.63
2018-07-30T10:34:29.636Z,101182.30
2018-07-30T10:36:58.259Z,101178.41
2018-07-30T10:39:26.887Z,101176.37
2018-07-30T10:41:55.874Z,101178.81
2018-07-30T10:44:24.520Z,101180.95
2018-07-30T10:46:53.205Z,101175.66
2018-07-30T10:49:21.892Z,101164.92
2018-07-30T10:51:50.604Z,101166.91
2018-07-30T10:54:19.207Z,101164.12
2018-07-30T10:56:47.756Z,101164.65
2018-07-30T10:59:16.380Z,101163.09
2018-07-30T11:01:44.971Z,101161.80
2018-07-30T11:04:13.592Z,101168.92
2018-07-30T11:06:42.278Z,101170.12
2018-07-30T11:09:13.802Z,101164.27
2018-07-30T11:11:40.159Z,101161.81
2018-07-30T11:14:09.360Z,101159.15
2018-07-30T11:16:38.134Z,101169.58
2018-07-30T11:19:07.086Z,101168.06
2018-07-30T11:21:35.750Z,101163.49
2018-07-30T11:24:04.451Z,101165.17
2018-07-30T11:26:33.006Z,101151.91
2018-07-30T11:29:01.576Z,101165.52
2018-07-30T11:31:30.074Z,101166.92
2018-07-30T11:33:59.391Z,101166.72
2018-07-30T11:36:27.933Z,101168.49
2018-07-30T11:38:56.515Z,101169.59
2018-07-30T11:41:25.146Z,101165.77
2018-07-30T11:43:53.786Z,101170.28
2018-07-30T11:46:22.398Z,101163.23
2018-07-30T11:48:51.152Z,101152.86
2018-07-30T11:51:19.739Z,101175.96
2018-07-30T11:53:48.321Z,101173.41
2018-07-30T11:56:16.847Z,101170.81
2018-07-30T11:58:45.488Z,101164.64
2018-07-30T12:01:14.228Z,101181.58
2018-07-30T12:03:42.845Z,101183.66
2018-07-30T12:06:11.749Z,101174.04
2018-07-30T12:08:40.441Z,101179.61
2018-07-30T12:11:09.064Z,101178.78
2018-07-30T12:13:37.704Z,101184.62
2018-07-30T12:16:06.227Z,101182.84
2018-07-30T12:18:34.811Z,101184.59
2018-07-30T12:21:03.451Z,101200.47
2018-07-30T12:23:31.990Z,101188.84
2018-07-30T12:26:00.563Z,101183.47
2018-07-30T12:28:29.131Z,101181.67
2018-07-30T12:30:57.695Z,101194.98
2018-07-30T12:33:26.361Z,101194.08
2018-07-30T12:35:55.359Z,101190.25
2018-07-30T12:38:24.049Z,101197.68
2018-07-30T12:40:52.638Z,101191.17
2018-07-30T12:43:21.263Z,101187.08
2018-07-30T12:45:49.831Z,101198.48
2018-07-30T12:48:18.477Z,101193.22
2018-07-30T12:50:47.151Z,101192.81
2018-07-30T12:53:15.658Z,101197.94
2018-07-30T12:55:44.231Z,101200.46
2018-07-30T12:58:12.863Z,101200.51
2018-07-30T13:00:41.494Z,101203.23
2018-07-30T13:03:10.076Z,101206.06
2018-07-30T13:05:38.583Z,101209.08
2018-07-30T13:08:07.163Z,101216.53
2018-07-30T13:10:35.928Z,101214.70
2018-07-30T13:13:04.511Z,101217.34
2018-07-30T13:15:33.126Z,101215.15
2018-07-30T13:18:01.719Z,101213.59
2018-07-30T13:20:30.363Z,101210.80
2018-07-30T13:22:58.951Z,101213.64
2018-07-30T13:25:27.568Z,101206.70
2018-07-30T13:27:56.314Z,101208.77
2018-07-30T13:30:24.958Z,101207.36
2018-07-30T13:32:53.546Z,101206.92
2018-07-30T13:35:22.227Z,101206.32
2018-07-30T13:37:50.855Z,101207.02
2018-07-30T13:40:19.536Z,101212.50
2018-07-30T13:42:48.221Z,101207.41
2018-07-30T13:45:16.804Z,101202.21
2018-07-30T13:47:45.349Z,101206.04
2018-07-30T13:50:13.970Z,101201.27
2018-07-30T13:52:42.656Z,101204.68
2018-07-30T13:55:11.444Z,101197.40
2018-07-30T13:57:40.125Z,101197.68
2018-07-30T14:00:10.291Z,101194.35
2018-07-30T14:02:39.181Z,101192.77
2018-07-30T14:05:08.812Z,101186.72
2018-07-30T14:07:37.683Z,101189.23
2018-07-30T14:10:06.977Z,101180.77
2018-07-30T14:12:35.619Z,101182.99
2018-07-30T14:15:05.199Z,101166.25
2018-07-30T14:17:33.912Z,101185.69
2018-07-30T14:20:02.599Z,101178.21
2018-07-30T14:22:31.207Z,101185.08
2018-07-30T14:24:59.705Z,101173.48
2018-07-30T14:27:28.404Z,101172.89
2018-07-30T14:29:57.030Z,101171.93
2018-07-30T14:32:25.636Z,101170.69
2018-07-30T14:34:54.298Z,101163.52
2018-07-30T14:37:22.822Z,101166.20
2018-07-30T14:39:51.465Z,101164.95
2018-07-30T14:42:20.094Z,101153.71
2018-07-30T14:44:48.651Z,101152.36
2018-07-30T14:47:17.317Z,101160.08
2018-07-30T14:49:46.001Z,101160.02
2018-07-30T14:52:14.537Z,101157.88
2018-07-30T14:54:43.119Z,101160.52
2018-07-30T14:57:11.750Z,101156.69
2018-07-30T14:59:40.470Z,101157.21
2018-07-30T15:02:09.230Z,101144.60
2018-07-30T15:04:38.421Z,101141.45
2018-07-30T15:07:06.978Z,101149.50
2018-07-30T15:09:35.639Z,101147.36
2018-07-30T15:12:04.314Z,101143.94
2018-07-30T15:14:32.844Z,101143.98
2018-07-30T15:17:01.542Z,101147.75
2018-07-30T15:19:30.246Z,101136.06
2018-07-30T15:21:58.746Z,101136.19
2018-07-30T15:24:28.107Z,101137.63
2018-07-30T15:26:56.691Z,101134.23
2018-07-30T15:29:25.376Z,101136.58
2018-07-30T15:31:54.061Z,101138.53
2018-07-30T15:34:22.823Z,101131.61
2018-07-30T15:36:51.491Z,101129.06
2018-07-30T15:39:20.118Z,101132.30
2018-07-30T15:41:48.678Z,101129.84
2018-07-30T15:44:17.283Z,101138.59
2018-07-30T15:46:45.869Z,101135.81
2018-07-30T15:49:14.404Z,101140.83
2018-07-30T15:51:43.094Z,101146.17
2018-07-30T15:54:11.663Z,101150.48
2018-07-30T15:56:40.255Z,101144.97
2018-07-30T15:59:08.877Z,101148.33
2018-07-30T16:01:37.403Z,101141.20
2018-07-30T16:04:06.257Z,101144.63
2018-07-30T16:06:34.755Z,101143.45
2018-07-30T16:09:03.624Z,101142.88
2018-07-30T16:11:32.208Z,101148.52
2018-07-30T16:14:00.742Z,101142.03
2018-07-30T16:16:29.298Z,101141.97
2018-07-30T16:18:58.020Z,101142.88
2018-07-30T16:21:26.644Z,101147.25
2018-07-30T16:23:55.247Z,101141.77
2018-07-30T16:26:24.338Z,101139.69
2018-07-30T16:28:53.154Z,101136.52
2018-07-30T16:31:21.843Z,101145.25
2018-07-30T16:33:50.412Z,101143.16
2018-07-30T16:36:19.006Z,101152.84
2018-07-30T16:38:47.644Z,101141.97
2018-07-30T16:41:16.171Z,101136.10
2018-07-30T16:43:44.912Z,101140.33
2018-07-30T16:46:13.804Z,101133.53
2018-07-30T16:48:42.439Z,101132.86
2018-07-30T16:51:11.227Z,101136.89
2018-07-30T16:53:39.905Z,101139.39
2018-07-30T16:56:08.647Z,101141.87
2018-07-30T16:58:37.189Z,101140.36
2018-07-30T17:01:05.913Z,101140.28
2018-07-30T17:03:34.546Z,101140.09
2018-07-30T17:06:03.085Z,101140.55
2018-07-30T17:08:31.719Z,101137.27
2018-07-30T17:11:00.271Z,101140.09
2018-07-30T17:13:28.786Z,101140.84
2018-07-30T17:15:57.350Z,101141.85
2018-07-30T17:18:27.530Z,101136.89
2018-07-30T17:20:56.113Z,101138.68
2018-07-30T17:23:25.394Z,101140.84
2018-07-30T17:25:54.898Z,101135.90
2018-07-30T17:28:23.415Z,101147.13
2018-07-30T17:30:52.084Z,101147.68
2018-07-30T17:33:20.683Z,101143.83
2018-07-30T17:35:50.783Z,101152.66
2018-07-30T17:38:20.331Z,101152.66
2018-07-30T17:40:48.999Z,101149.97
2018-07-30T17:43:17.660Z,101149.65
2018-07-30T17:45:46.807Z,101152.45
2018-07-30T17:48:15.323Z,101150.11
2018-07-30T17:50:43.935Z,101157.95
2018-07-30T17:53:12.635Z,101156.97
2018-07-30T17:55:41.215Z,101157.66
2018-07-30T17:58:09.772Z,101151.98
2018-07-30T18:00:38.354Z,101154.81
2018-07-30T18:03:07.094Z,101161.94
2018-07-30T18:05:35.810Z,101162.30
2018-07-30T18:08:04.518Z,101158.61
2018-07-30T18:10:33.147Z,101162.56
2018-07-30T18:13:01.885Z,101165.60
2018-07-30T18:15:30.671Z,101160.11
2018-07-30T18:17:59.171Z,101163.73
2018-07-30T18:20:27.690Z,101161.76
2018-07-30T18:22:56.330Z,101166.94
2018-07-30T18:25:25.587Z,101166.94
2018-07-30T18:27:54.123Z,101166.94
2018-07-30T18:30:22.787Z,101168.30
2018-07-30T18:32:51.418Z,101168.63
2018-07-30T18:35:19.991Z,101168.67
2018-07-30T18:37:48.559Z,101172.87
2018-07-30T18:40:17.154Z,101165.75
2018-07-30T18:42:45.908Z,101168.42
2018-07-30T18:45:14.514Z,101164.45
2018-07-30T18:47:43.094Z,101165.45
2018-07-30T18:50:11.798Z,101172.33
2018-07-30T18:52:40.359Z,101177.98
2018-07-30T18:55:08.879Z,101173.70
2018-07-30T18:57:37.417Z,101177.83
2018-07-30T19:00:06.719Z,101185.02
2018-07-30T19:02:35.281Z,101186.38
2018-07-30T19:05:04.130Z,101197.96
2018-07-30T19:07:32.755Z,101192.89
2018-07-30T19:10:01.337Z,101200.22
2018-07-30T19:12:29.936Z,101201.79
2018-07-30T19:14:58.709Z,101209.65
2018-07-30T19:17:27.393Z,101208.32
2018-07-30T19:19:55.900Z,101207.34
2018-07-30T19:22:24.487Z,101203.77
2018-07-30T19:24:52.975Z,101215.50
2018-07-30T19:27:21.622Z,101213.49
2018-07-30T19:29:50.350Z,101214.23
2018-07-30T19:32:18.997Z,101215.28
2018-07-30T19:34:47.685Z,101216.32
2018-07-30T19:37:16.187Z,101218.72
2018-07-30T19:39:44.974Z,101213.64
2018-07-30T19:42:13.490Z,101219.74
2018-07-30T19:44:42.049Z,101221.45
2018-07-30T19:47:10.623Z,101223.15
2018-07-30T19:49:39.143Z,101229.92
2018-07-30T19:52:08.680Z,101226.87
2018-07-30T19:54:37.970Z,101225.70
2018-07-30T19:57:06.557Z,101226.02
2018-07-30T19:59:35.060Z,101236.84
2018-07-30T20:02:03.775Z,101240.19
2018-07-30T20:04:32.363Z,101240.84
2018-07-30T20:07:01.100Z,101247.42
2018-07-30T20:09:29.788Z,101252.14
2018-07-30T20:11:58.391Z,101254.14
2018-07-30T20:14:27.018Z,101251.68
2018-07-30T20:16:55.612Z,101248.59
2018-07-30T20:19:24.220Z,101248.91
2018-07-30T20:21:52.823Z,101259.84
2018-07-30T20:24:21.589Z,101256.25
2018-07-30T20:26:50.138Z,101261.44
2018-07-30T20:29:18.755Z,101259.19
2018-07-30T20:31:47.255Z,101264.19
2018-07-30T20:34:15.839Z,101261.05
2018-07-30T20:36:44.430Z,101261.34
2018-07-30T20:39:13.043Z,101265.33
2018-07-30T20:41:41.776Z,101262.70
2018-07-30T20:44:10.457Z,101265.84
2018-07-30T20:46:39.199Z,101266.99
2018-07-30T20:49:07.746Z,101266.44
2018-07-30T20:51:37.027Z,101203.90
2018-07-30T20:54:06.142Z,101268.02
2018-07-30T20:56:34.805Z,101262.59
2018-07-30T20:59:03.594Z,101262.89
2018-07-30T21:01:32.176Z,101264.17
2018-07-30T21:04:00.674Z,101260.06
2018-07-30T21:06:29.444Z,101259.55
2018-07-30T21:08:58.031Z,101262.40
2018-07-30T21:11:26.680Z,101256.59
2018-07-30T21:13:55.240Z,101256.56
2018-07-30T21:16:24.594Z,101255.83
2018-07-30T21:18:53.231Z,101250.39
2018-07-30T21:21:21.999Z,101245.94
2018-07-30T21:23:50.659Z,101248.30
2018-07-30T21:26:19.170Z,101248.94
2018-07-30T21:28:47.816Z,101245.16
2018-07-30T21:31:16.400Z,101239.02
2018-07-30T21:33:44.983Z,101246.41
2018-07-30T21:36:13.565Z,101247.04
2018-07-30T21:38:42.251Z,101242.32
2018-07-30T21:41:10.777Z,101237.56
2018-07-30T21:43:39.519Z,101238.57
2018-07-30T21:46:08.028Z,101239.21
2018-07-30T21:48:36.602Z,101243.25
2018-07-30T21:51:05.094Z,101244.91
2018-07-30T21:53:33.693Z,101244.00
2018-07-30T21:56:02.330Z,101243.44
2018-07-30T21:58:31.017Z,101247.41
2018-07-30T22:00:59.712Z,101239.63
2018-07-30T22:03:28.283Z,101248.72
2018-07-30T22:06:01.783Z,101245.83
2018-07-30T22:08:30.570Z,101247.33
2018-07-30T22:10:59.240Z,101246.77
2018-07-30T22:13:27.785Z,101247.55
2018-07-30T22:15:56.783Z,101249.48
2018-07-30T22:18:25.414Z,101256.19
2018-07-30T22:20:53.997Z,101251.38
2018-07-30T22:23:22.686Z,101249.56
2018-07-30T22:25:51.361Z,101248.12
2018-07-30T22:28:20.155Z,101244.95
2018-07-30T22:30:48.760Z,101245.16
2018-07-30T22:33:17.526Z,101240.69
2018-07-30T22:35:46.128Z,101250.31
2018-07-30T22:38:14.707Z,101245.88
2018-07-30T22:40:43.225Z,101248.52
2018-07-30T22:43:11.856Z,101247.74
2018-07-30T22:45:40.690Z,101238.31
2018-07-30T22:48:09.274Z,101249.80
2018-07-30T22:50:37.812Z,101250.08
2018-07-30T22:53:06.315Z,101243.98
2018-07-30T22:55:34.976Z,101246.95
2018-07-30T22:58:03.559Z,101240.99
2018-07-30T23:00:32.090Z,101243.63
2018-07-30T23:03:00.627Z,101240.22
2018-07-30T23:05:29.294Z,101246.68
2018-07-30T23:07:57.886Z,101238.02
2018-07-30T23:10:26.476Z,101244.55
2018-07-30T23:12:55.160Z,101248.66
2018-07-30T23:15:23.678Z,101249.29
2018-07-30T23:17:52.428Z,101241.64
2018-07-30T23:20:20.950Z,101250.19
2018-07-30T23:22:49.547Z,101248.50
2018-07-30T23:25:18.051Z,101257.92
2018-07-30T23:27:46.606Z,101254.98
2018-07-30T23:30:15.136Z,101257.44
2018-07-30T23:32:43.720Z,101252.72
2018-07-30T23:35:12.337Z,101251.72
2018-07-30T23:37:41.493Z,101247.68
2018-07-30T23:40:10.183Z,101259.06
2018-07-30T23:42:38.768Z,101252.99
2018-07-30T23:45:07.386Z,101253.96
2018-07-30T23:47:36.036Z,101256.31
2018-07-30T23:50:04.624Z,101250.30
2018-07-30T23:52:33.202Z,101255.41
2018-07-30T23:55:01.888Z,101249.61
2018-07-30T23:57:30.367Z,101254.47
2018-07-30T23:59:58.862Z,101247.75
